Etusivu
METAR-TAF:

METAR-TAF

Lentoasemat :

Larnakan kansainvälinen lentoasema

Larnaka, Kypros

Leveyspiiri: 34-53N, Pituuspiiri: 033-38E, korkeus merenpinnasta: 2 m

Tämänhetkinen sää

Tämä raportti tehtiin 14 minuuttia sitten, kello 05.00 UTC
Tuuli 2 kn eri suunnista
Lämpötila 9°C
Kosteus 76%
Ilmanpaine 1021 hPa
Näkyvyys 10 km tai enemmän
Muutamia pilviä 3000 ft:n korkeudessa

METAR: LCLK 130500Z VRB02KT 9999 FEW030 09/05 Q1021 NOSIG

Aika: 07:14 (05:14 UTC)

Sääennuste

Tämä raportti tehtiin 5 tuntia ja 44 minuuttia sitten, kello 23.30 UTC
Ennuste voimassa 13. päivästä klo 00 UTC - 13. päivään klo 24 UTC
Tuuli 9 kn lännestä/luoteesta
Näkyvyys 10 km tai enemmän
Muutamia pilviä 2500 ft:n korkeudessa
Tulossa
13. päivästä klo 07 UTC - 13. päivään klo 11 UTC
Tuuli 14 kn lounaasta
Tulossa
13. päivästä klo 18 UTC - 13. päivään klo 21 UTC
Tuuli 7 kn luoteesta

TAF: LCLK 122330Z 1300/1324 30009KT 9999 FEW025 BECMG 1307/1311 23014KT BECMG 1318/1321 32007KT

Säähavainnot ja -ennusteet yli 4000 lentoasemalta (METAR- ja TAF-raportit).

Käytössä olevat sääasemat on merkitty karttaan keltaisilla ja punaisilla pisteillä.

Aseta hiiri pisteen päälle nähdäksesi sääaseman nimen.

Klikkaa sitten nähdäksesi säähavainnot ja -ennusteet.

Kartan vaihtaminen: klikkaa mustalla rastilla varustettuja vihreitä pisteitä, niin voit zoomata sisään; viivalla varustettua vihreää pistettä, niin voit zoomata ulos tai vihreitä nuolia, niin pääset viereisille kartoille.


METAR-TAF: